createdAt,value
2022-09-04T00:00:11.013Z,4.63
2022-09-04T00:05:22.969Z,5.55
2022-09-04T00:10:34.134Z,5.43
2022-09-04T00:15:43.981Z,3.35
2022-09-04T00:20:55.601Z,3.33
2022-09-04T00:26:09.151Z,4.43
2022-09-04T00:31:23.551Z,4.23
2022-09-04T00:36:30.926Z,3.58
2022-09-04T00:41:43.598Z,3.78
2022-09-04T00:47:18.598Z,4.45
2022-09-04T00:52:37.311Z,6.95
2022-09-04T00:58:04.205Z,3.55
2022-09-04T01:03:35.042Z,4.57
2022-09-04T01:09:01.879Z,4.57
2022-09-04T01:14:15.210Z,4.80
2022-09-04T01:19:41.559Z,4.88
2022-09-04T01:25:01.186Z,4.63
2022-09-04T01:30:09.223Z,4.90
2022-09-04T01:35:22.888Z,3.42
2022-09-04T01:40:41.918Z,3.60
2022-09-04T01:46:08.654Z,3.17
2022-09-04T01:51:21.230Z,4.22
2022-09-04T01:56:35.143Z,4.00
2022-09-04T02:01:47.348Z,5.43
2022-09-04T02:07:02.764Z,3.38
2022-09-04T02:12:25.504Z,5.00
2022-09-04T02:17:39.089Z,5.72
2022-09-04T02:22:53.222Z,6.57
2022-09-04T02:28:11.476Z,4.15
2022-09-04T02:33:26.545Z,5.07
2022-09-04T02:38:39.409Z,4.03
2022-09-04T02:43:58.123Z,4.32
2022-09-04T02:49:13.592Z,5.35
2022-09-04T02:54:29.885Z,3.72
2022-09-04T02:59:52.681Z,4.10
2022-09-04T03:05:04.932Z,3.72
2022-09-04T03:10:13.670Z,2.97
2022-09-04T03:15:26.312Z,4.40
2022-09-04T03:20:34.867Z,5.75
2022-09-04T03:26:04.700Z,9.02
2022-09-04T03:31:21.345Z,5.20
2022-09-04T03:36:37.086Z,6.00
2022-09-04T03:41:46.735Z,5.90
2022-09-04T03:47:02.356Z,6.13
2022-09-04T03:52:18.432Z,5.53
2022-09-04T03:57:42.754Z,4.63
2022-09-04T04:03:09.713Z,6.73
2022-09-04T04:08:57.395Z,5.53
2022-09-04T04:14:28.728Z,5.15
2022-09-04T04:19:57.769Z,4.13
2022-09-04T04:25:21.222Z,4.80
2022-09-04T04:30:25.053Z,5.28
2022-09-04T04:35:41.569Z,6.05
2022-09-04T04:41:06.038Z,5.90
2022-09-04T04:46:18.590Z,4.97
2022-09-04T04:51:39.662Z,4.53
2022-09-04T04:56:51.919Z,7.68
2022-09-04T05:02:07.595Z,4.63
2022-09-04T05:07:22.019Z,5.13
2022-09-04T05:12:36.867Z,6.38
2022-09-04T05:17:47.770Z,6.35
2022-09-04T05:23:01.023Z,8.10
2022-09-04T05:28:18.439Z,7.20
2022-09-04T05:33:30.477Z,7.10
2022-09-04T05:38:44.766Z,5.63
2022-09-04T05:44:10.652Z,6.35
2022-09-04T05:49:34.502Z,8.75
2022-09-04T05:55:16.935Z,12.57
2022-09-04T06:00:22.671Z,8.30
2022-09-04T06:05:42.508Z,13.60
2022-09-04T06:10:56.239Z,12.65
2022-09-04T06:16:29.986Z,9.57
2022-09-04T06:22:01.536Z,8.75
2022-09-04T06:27:34.516Z,11.05
2022-09-04T06:33:02.885Z,12.05
2022-09-04T06:38:19.578Z,9.48
2022-09-04T06:43:33.457Z,12.70
2022-09-04T06:48:54.905Z,12.93
2022-09-04T06:54:13.370Z,12.18
2022-09-04T06:59:48.820Z,11.52
2022-09-04T07:05:04.320Z,10.43
2022-09-04T07:10:11.576Z,7.38
2022-09-04T07:15:47.157Z,11.98
2022-09-04T07:21:00.718Z,10.30
2022-09-04T07:26:19.998Z,10.23
2022-09-04T07:31:27.774Z,10.43
2022-09-04T07:36:41.384Z,11.77
2022-09-04T07:41:53.039Z,13.15
2022-09-04T07:47:03.406Z,13.80
2022-09-04T07:52:20.226Z,8.05
2022-09-04T07:57:48.195Z,8.93
2022-09-04T08:03:18.022Z,11.10
2022-09-04T08:08:55.053Z,11.77
2022-09-04T08:14:32.673Z,12.13
2022-09-04T08:19:45.089Z,10.70
2022-09-04T08:25:03.996Z,12.00
2022-09-04T08:30:11.211Z,11.88
2022-09-04T08:35:23.913Z,9.82
2022-09-04T08:41:07.046Z,8.82
2022-09-04T08:46:45.446Z,8.63
2022-09-04T08:52:35.872Z,11.65
2022-09-04T08:58:26.534Z,11.70
2022-09-04T09:03:58.401Z,10.07
2022-09-04T09:09:31.952Z,8.15
2022-09-04T09:15:10.703Z,11.45
2022-09-04T09:20:46.606Z,10.20
2022-09-04T09:26:01.703Z,10.05
2022-09-04T09:31:37.164Z,10.47
2022-09-04T09:37:11.347Z,10.20
2022-09-04T09:42:45.826Z,13.52
2022-09-04T09:48:36.565Z,10.77
2022-09-04T09:54:22.134Z,11.77
2022-09-04T10:00:07.614Z,12.90
2022-09-04T10:05:45.721Z,12.23
2022-09-04T10:11:29.901Z,10.40
2022-09-04T10:17:07.166Z,11.55
2022-09-04T10:23:01.317Z,9.95
2022-09-04T10:28:49.279Z,11.15
2022-09-04T10:34:12.643Z,11.55
2022-09-04T10:39:26.855Z,12.00
2022-09-04T10:45:04.099Z,9.02
2022-09-04T10:50:28.247Z,9.57
2022-09-04T10:55:54.307Z,9.57
2022-09-04T11:01:34.761Z,9.02
2022-09-04T11:07:01.611Z,11.73
2022-09-04T11:12:40.615Z,6.93
2022-09-04T11:18:17.413Z,11.70
2022-09-04T11:23:56.056Z,8.43
2022-09-04T11:29:29.723Z,7.95
2022-09-04T11:35:23.395Z,6.75
2022-09-04T11:40:59.034Z,8.02
2022-09-04T11:46:25.895Z,6.93
2022-09-04T11:52:05.998Z,6.03
2022-09-04T11:57:22.328Z,6.32
2022-09-04T12:02:48.863Z,7.60
2022-09-04T12:08:10.547Z,10.05
2022-09-04T12:14:03.307Z,8.10
2022-09-04T12:19:47.035Z,9.02
2022-09-04T12:25:08.746Z,8.77
2022-09-04T12:30:19.871Z,10.25
2022-09-04T12:36:07.332Z,9.88
2022-09-04T12:41:16.174Z,5.57
2022-09-04T12:46:46.141Z,8.48
2022-09-04T12:52:02.601Z,6.15
2022-09-04T12:57:21.506Z,8.00
2022-09-04T13:02:35.163Z,16.33
2022-09-04T13:07:53.729Z,8.38
2022-09-04T13:13:08.622Z,9.55
2022-09-04T13:18:29.234Z,5.60
2022-09-04T13:23:50.473Z,4.45
2022-09-04T13:29:04.911Z,8.00
2022-09-04T13:34:17.738Z,7.75
2022-09-04T13:39:46.988Z,8.40
2022-09-04T13:45:02.055Z,9.23
2022-09-04T13:50:12.285Z,7.90
2022-09-04T13:55:22.726Z,5.25
2022-09-04T14:00:28.466Z,6.63
2022-09-04T14:11:05.070Z,9.75
2022-09-04T14:16:09.813Z,5.38
2022-09-04T14:21:22.670Z,13.85
2022-09-04T14:26:33.403Z,7.43
2022-09-04T14:31:46.650Z,7.10
2022-09-04T14:37:02.793Z,7.88
2022-09-04T14:42:20.402Z,8.30
2022-09-04T14:47:35.362Z,6.35
2022-09-04T14:52:43.006Z,6.63
2022-09-04T14:57:52.318Z,8.02
2022-09-04T15:03:02.547Z,6.28
2022-09-04T15:08:09.636Z,6.63
2022-09-04T15:13:54.037Z,8.10
2022-09-04T15:19:02.935Z,7.72
2022-09-04T15:24:17.260Z,7.07
2022-09-04T15:29:26.919Z,7.20
2022-09-04T15:34:32.438Z,10.52
2022-09-04T15:44:47.161Z,6.60
2022-09-04T15:49:54.871Z,8.57
2022-09-04T15:55:21.650Z,9.73
2022-09-04T16:00:27.920Z,7.40
2022-09-04T16:05:39.769Z,9.20
2022-09-04T16:10:54.054Z,10.13
2022-09-04T16:16:06.426Z,7.18
2022-09-04T16:21:18.885Z,9.15
2022-09-04T16:26:30.109Z,8.10
2022-09-04T16:31:36.795Z,10.07
2022-09-04T16:36:43.538Z,8.30
2022-09-04T16:41:51.369Z,7.63
2022-09-04T16:47:05.165Z,7.22
2022-09-04T16:52:31.027Z,10.43
2022-09-04T16:57:38.958Z,9.40
2022-09-04T17:02:50.388Z,7.00
2022-09-04T17:08:00.064Z,8.63
2022-09-04T17:13:10.216Z,6.72
2022-09-04T17:18:23.004Z,8.82
2022-09-04T17:28:56.583Z,8.07
2022-09-04T17:29:34.920Z,8.77
2022-09-04T17:40:44.350Z,6.72
2022-09-04T17:40:54.114Z,9.77
2022-09-04T17:45:54.028Z,12.45
2022-09-04T17:51:03.206Z,12.35
2022-09-04T17:56:15.452Z,17.40
2022-09-04T18:01:24.584Z,13.48
2022-09-04T18:06:40.175Z,11.00
2022-09-04T18:12:00.297Z,13.15
2022-09-04T18:17:11.696Z,10.38
2022-09-04T18:22:31.731Z,10.57
2022-09-04T18:27:39.911Z,10.85
2022-09-04T18:37:11.416Z,8.75
2022-09-04T18:38:19.115Z,10.77
2022-09-04T18:50:36.087Z,10.43
2022-09-04T18:50:39.755Z,10.70
2022-09-04T18:54:30.495Z,11.80
2022-09-04T18:59:38.369Z,11.55
2022-09-04T19:04:53.576Z,11.18
2022-09-04T19:10:06.948Z,11.10
2022-09-04T19:15:35.924Z,9.83
2022-09-04T19:20:47.649Z,11.32
2022-09-04T19:25:57.077Z,10.07
2022-09-04T19:31:08.710Z,9.98
2022-09-04T19:36:21.457Z,11.05
2022-09-04T19:46:00.639Z,12.10
2022-09-04T19:47:04.980Z,10.68
2022-09-04T19:53:30.004Z,9.77
2022-09-04T19:57:46.594Z,7.53
2022-09-04T20:02:51.974Z,11.23
2022-09-04T20:07:59.743Z,8.13
2022-09-04T20:13:25.414Z,9.63
2022-09-04T20:18:37.486Z,10.77
2022-09-04T20:29:09.844Z,7.55
2022-09-04T20:34:34.594Z,9.53
2022-09-04T20:39:45.167Z,6.85
2022-09-04T20:47:30.664Z,6.18
2022-09-04T20:52:58.245Z,7.00
2022-09-04T20:56:05.282Z,7.75
2022-09-04T21:03:20.723Z,7.13
2022-09-04T21:06:49.691Z,7.60
2022-09-04T21:12:05.341Z,7.65
2022-09-04T21:17:35.259Z,10.57
2022-09-04T21:22:57.789Z,7.20
2022-09-04T21:28:29.773Z,8.40
2022-09-04T21:33:41.714Z,9.65
2022-09-04T21:39:14.553Z,7.72
2022-09-04T21:44:43.791Z,7.53
2022-09-04T21:50:34.921Z,10.38
2022-09-04T22:01:34.596Z,8.85
2022-09-04T22:02:38.282Z,10.02
2022-09-04T22:11:06.655Z,9.07
2022-09-04T22:13:41.543Z,9.30
2022-09-04T22:18:40.937Z,9.88
2022-09-04T22:24:21.863Z,8.38
2022-09-04T22:30:00.023Z,6.80
2022-09-04T22:35:35.604Z,8.57
2022-09-04T22:40:57.012Z,8.85
2022-09-04T22:46:30.928Z,7.10
2022-09-04T22:51:57.201Z,6.25
2022-09-04T22:57:08.561Z,7.45
2022-09-04T23:03:07.088Z,9.73
2022-09-04T23:13:48.066Z,6.90
2022-09-04T23:14:35.821Z,8.70
2022-09-04T23:26:32.481Z,7.38
2022-09-04T23:26:45.678Z,7.78
2022-09-04T23:31:47.121Z,7.15
2022-09-04T23:37:09.349Z,8.65
2022-09-04T23:42:37.957Z,8.35
2022-09-04T23:48:16.070Z,6.72
2022-09-04T23:53:36.511Z,8.38
2022-09-04T23:58:55.658Z,7.70
